Blue Star 1 — SWET — position and weather

sailwx.info

Track history (hours):
 
Tides and Currents Weather Stations Pressure Air Temp Water Temp Dewpoint Dewpoint Depression Visibility Wind Speed Wind Dir Waves Ship Positions

Blue Star 1

Last reported at 2018-May-22 16:53 UTC. Time now 2018-May-23 10:29 UTC.
Position N 37°32' E 023°49'.

Length 176 m; draft 6.5 m.

Type: Passenger vessel. MMSI: 239710000.

Date/timePositionNaut miles runAvg speedWind from/ knotsBaromVisibWave heightAir tempDewpointWater temp
2018-May-22 16:53N 37°32' E 023°49'821.2
2018-May-22 16:30N 37°38' E 023°43'1121.3
2018-May-22 16:01N 37°48' E 023°37'917.4
2018-May-22 15:31N 37°56' E 023°37'0 0.1
2018-May-22 15:01N 37°56' E 023°37'0 0.0
2018-May-22 14:30N 37°56' E 023°37'0 0.0
2018-May-22 13:59N 37°56' E 023°37'0 0.0
2018-May-22 13:30N 37°56' E 023°37'0 0.0
2018-May-22 12:38N 37°56' E 023°37'0 0.0
2018-May-22 12:25N 37°56' E 023°37'0 0.0
2018-May-22 12:01N 37°56' E 023°37'0 0.0
2018-May-22 11:30N 37°56' E 023°37'0 0.0
2018-May-22 11:00N 37°56' E 023°37'0 0.0
2018-May-22 10:30N 37°56' E 023°37'0 0.0
2018-May-22 09:58N 37°56' E 023°37'0 0.0
2018-May-22 09:30N 37°56' E 023°37'0 0.0
2018-May-22 09:00N 37°56' E 023°37'0 0.0
2018-May-22 08:30N 37°56' E 023°37'0 0.0
2018-May-22 08:00N 37°56' E 023°37'0 0.0
2018-May-22 07:30N 37°56' E 023°37'0 0.0
2018-May-22 06:59N 37°56' E 023°37'0 0.0
2018-May-22 06:29N 37°56' E 023°37'0 0.0
2018-May-22 05:59N 37°56' E 023°37'0 0.0
2018-May-22 05:29N 37°56' E 023°37'0 0.0
2018-May-22 05:00N 37°56' E 023°37'4 8.5
2018-May-22 04:30N 37°52' E 023°39'1325.1
2018-May-22 04:00N 37°41' E 023°46'11 0.3
2018-May-20 16:29N 37°31' E 023°51'1021.2
2018-May-20 16:00N 37°39' E 023°44'1021.1
2018-May-20 15:30N 37°49' E 023°38'815.7
2018-May-20 15:00N 37°56' E 023°37'0 0.0
2018-May-20 14:30N 37°56' E 023°37'0 0.0
2018-May-20 13:59N 37°56' E 023°37'0 0.0
2018-May-20 13:26N 37°56' E 023°37'0 0.0
2018-May-20 12:59N 37°56' E 023°37'0 0.0
2018-May-20 12:29N 37°56' E 023°37'0 0.0
2018-May-20 11:58N 37°56' E 023°37'0 0.0
2018-May-20 11:28N 37°56' E 023°37'0 0.0
2018-May-20 10:58N 37°56' E 023°37'0 0.0
2018-May-20 10:28N 37°56' E 023°37'0 0.0
2018-May-20 09:58N 37°56' E 023°37'0 0.0
2018-May-20 09:28N 37°56' E 023°37'0 0.0
2018-May-20 08:55N 37°56' E 023°37'0 0.0
2018-May-20 08:28N 37°56' E 023°37'0 0.0
2018-May-20 07:58N 37°56' E 023°37'0 0.0
2018-May-20 07:28N 37°56' E 023°37'0 0.0
2018-May-20 06:58N 37°56' E 023°37'0 0.0
2018-May-20 06:28N 37°56' E 023°37'0 0.0
2018-May-20 05:58N 37°56' E 023°37'0 0.0
2018-May-20 05:30N 37°56' E 023°37'0 0.0
2018-May-20 05:00N 37°56' E 023°37'0 0.0
2018-May-20 04:30N 37°56' E 023°37'0 0.0
2018-May-20 04:00N 37°56' E 023°37'0 0.0
2018-May-20 03:30N 37°56' E 023°37'0 0.1
2018-May-20 03:00N 37°56' E 023°38'714.8
2018-May-20 02:30N 37°49' E 023°41'1121.1
2018-May-20 02:00N 37°40' E 023°48'4821.1
2018-May-19 23:44N 37°23' E 024°44'521.3
2018-May-19 23:30N 37°21' E 024°49'1121.2
2018-May-19 23:00N 37°18' E 025°02'1121.5
2018-May-19 22:30N 37°16' E 025°16'1121.2
2018-May-19 22:00N 37°14' E 025°29'1020.9
2018-May-19 21:30N 37°12' E 025°41'11 0.5
2018-May-18 22:28N 37°18' E 025°53'1523.9
2018-May-18 21:50N 37°19' E 025°34'823.8
2018-May-18 21:31N 37°20' E 025°25'1223.4
2018-May-18 21:01N 37°22' E 025°10'1122.2
2018-May-18 20:30N 37°26' E 024°57'0 0.7
2018-May-18 20:00N 37°26' E 024°58'918.6
2018-May-18 19:31N 37°32' E 024°48'4624.5
2018-May-18 17:39N 37°37' E 023°51'425.3
2018-May-18 17:30N 37°38' E 023°47'1223.8
2018-May-18 17:01N 37°48' E 023°38'917.0
2018-May-18 16:30N 37°56' E 023°38'0 0.0
2018-May-18 16:00N 37°56' E 023°38'0 0.0
2018-May-18 15:30N 37°56' E 023°38'0 0.0
2018-May-18 15:00N 37°56' E 023°38'0 0.0
2018-May-18 14:30N 37°56' E 023°38'0 0.0
2018-May-18 14:00N 37°56' E 023°38'0 0.0
2018-May-18 13:30N 37°56' E 023°38'0 0.0
2018-May-18 13:00N 37°56' E 023°38'0 0.0
2018-May-18 12:30N 37°56' E 023°38'0 0.0
2018-May-18 12:00N 37°56' E 023°38'0 0.0
2018-May-18 11:29N 37°56' E 023°38'0 0.0
2018-May-18 10:59N 37°56' E 023°38'0 0.0
2018-May-18 10:29N 37°56' E 023°38'0 0.0
2018-May-18 09:59N 37°56' E 023°38'0 0.0
2018-May-18 09:29N 37°56' E 023°38'0 0.0
2018-May-18 08:59N 37°56' E 023°38'2 5.2
2018-May-18 08:31N 37°54' E 023°38'1224.3
2018-May-18 08:00N 37°43' E 023°44'1223.7
2018-May-18 07:30N 37°37' E 023°57'1424.8
2018-May-18 06:56N 37°31' E 024°14'2523.8
2018-May-18 05:53N 37°24' E 024°44'924.6
2018-May-18 05:31N 37°20' E 024°54'1224.7
2018-May-18 05:00N 37°18' E 025°10'1224.9
2018-May-18 04:31N 37°15' E 025°25'1325.2
2018-May-18 04:00N 37°14' E 025°41'7 0.4
2018-May-17 12:08N 37°10' E 025°48'324.4
2018-May-17 12:01N 37°11' E 025°45'1224.6
2018-May-17 11:31N 37°14' E 025°30'1224.7
2018-May-17 11:00N 37°15' E 025°14'1224.4
2018-May-17 10:30N 37°19' E 024°59'1224.5
2018-May-17 10:01N 37°22' E 024°45'4524.1
2018-May-17 08:09N 37°36' E 023°51'424.9
2018-May-17 08:00N 37°38' E 023°47'1223.7
2018-May-17 07:31N 37°47' E 023°38'918.2
2018-May-17 07:00N 37°56' E 023°37'0 0.0
2018-May-17 06:30N 37°56' E 023°37'0 0.0
2018-May-17 06:00N 37°56' E 023°37'0 0.0
2018-May-17 05:30N 37°56' E 023°37'0 0.0
2018-May-17 05:00N 37°56' E 023°37'0 0.0
2018-May-17 04:30N 37°56' E 023°37'0 0.0
2018-May-17 04:00N 37°56' E 023°37'0 0.0
2018-May-17 03:30N 37°56' E 023°37'0 0.0
2018-May-17 03:00N 37°56' E 023°37'2 3.2
2018-May-17 02:30N 37°55' E 023°37'1122.4
2018-May-17 02:01N 37°45' E 023°44'1223.1
2018-May-17 01:30N 37°38' E 023°56'1722.9
2018-May-17 00:47N 37°44' E 024°16'10 0.3
2018-May-15 19:08N 37°37' E 024°06'318.8
2018-May-15 18:58N 37°37' E 024°02'818.7
2018-May-15 18:31N 37°37' E 023°52'917.5
2018-May-15 18:00N 37°41' E 023°42'918.4
2018-May-15 17:31N 37°49' E 023°37'714.0
2018-May-15 17:00N 37°56' E 023°38'0 0.0
2018-May-15 16:30N 37°56' E 023°38'0 0.0
2018-May-15 16:00N 37°56' E 023°38'0 0.0
2018-May-15 15:30N 37°56' E 023°38'0 0.0
2018-May-15 15:00N 37°56' E 023°38'0 0.0
2018-May-15 14:30N 37°56' E 023°38'0 0.0
2018-May-15 14:00N 37°56' E 023°38'0 0.0
2018-May-15 13:30N 37°56' E 023°38'0 0.0
2018-May-15 13:00N 37°56' E 023°38'0 0.0
2018-May-15 12:26N 37°56' E 023°38'0 0.0
2018-May-15 11:59N 37°56' E 023°38'0 0.0
2018-May-15 11:29N 37°56' E 023°38'0 0.0
2018-May-15 10:56N 37°56' E 023°38'0 0.0
2018-May-15 10:26N 37°56' E 023°38'0 0.0
2018-May-15 09:53N 37°56' E 023°38'0 0.0
2018-May-15 09:29N 37°56' E 023°38'0 0.0
2018-May-15 08:59N 37°56' E 023°38'0 0.0
2018-May-15 08:29N 37°56' E 023°38'0 0.0
2018-May-15 07:59N 37°56' E 023°38'0 0.0
2018-May-15 07:29N 37°56' E 023°38'0 0.0
2018-May-15 06:53N 37°56' E 023°38'0 0.0
2018-May-15 06:29N 37°56' E 023°38'0 0.0
2018-May-15 05:59N 37°56' E 023°38'0 0.0
2018-May-15 05:28N 37°56' E 023°38'0 0.0
2018-May-15 04:58N 37°56' E 023°38'0 0.0
2018-May-15 04:28N 37°56' E 023°38'0 0.0
2018-May-15 03:55N 37°56' E 023°38'0 0.0
2018-May-15 03:30N 37°56' E 023°38'510.5
2018-May-15 03:00N 37°51' E 023°39'1121.7
2018-May-15 02:30N 37°42' E 023°46'6 0.2
2018-May-13 18:28N 37°37' E 023°51'817.0
2018-May-13 18:00N 37°41' E 023°42'918.1
2018-May-13 17:30N 37°49' E 023°37'714.5
2018-May-13 17:00N 37°56' E 023°38'0 0.0
2018-May-13 16:25N 37°56' E 023°38'0 0.0
2018-May-13 15:58N 37°56' E 023°38'0 0.0
2018-May-13 15:28N 37°56' E 023°38'0 0.0
2018-May-13 14:58N 37°56' E 023°38'0 0.0
2018-May-13 14:28N 37°56' E 023°38'0 0.0
2018-May-13 13:58N 37°56' E 023°38'0 0.0
2018-May-13 13:25N 37°56' E 023°38'0 0.0
2018-May-13 12:58N 37°56' E 023°38'0 0.0
2018-May-13 12:28N 37°56' E 023°38'0 0.0
2018-May-13 11:58N 37°56' E 023°38'0 0.0
2018-May-13 11:28N 37°56' E 023°38'0 0.0
2018-May-13 10:58N 37°56' E 023°38'0 0.0
2018-May-13 10:28N 37°56' E 023°38'0 0.0
2018-May-13 09:58N 37°56' E 023°38'0 0.0
2018-May-13 09:30N 37°56' E 023°38'0 0.0
2018-May-13 09:00N 37°56' E 023°38'0 0.0
2018-May-13 08:30N 37°56' E 023°38'0 0.0
2018-May-13 08:00N 37°56' E 023°38'0 0.0
2018-May-13 07:30N 37°56' E 023°38'0 0.0
2018-May-13 07:00N 37°56' E 023°38'0 0.0
2018-May-13 06:30N 37°56' E 023°38'0 0.0
2018-May-13 06:00N 37°56' E 023°38'0 0.0
2018-May-13 05:30N 37°56' E 023°38'0 0.0
2018-May-13 05:00N 37°56' E 023°38'0 0.0
2018-May-13 04:30N 37°56' E 023°38'0 0.0
2018-May-13 04:00N 37°56' E 023°38'0 0.0
2018-May-13 03:30N 37°56' E 023°38'0 0.0
2018-May-13 02:57N 37°56' E 023°38'0 0.0
2018-May-13 02:29N 37°56' E 023°38'0 0.0
2018-May-13 01:59N 37°56' E 023°38'0 0.0
2018-May-13 01:29N 37°56' E 023°38'0 0.0
2018-May-13 00:56N 37°56' E 023°38'0 0.0
2018-May-13 00:29N 37°56' E 023°38'0 0.0
2018-May-12 23:59N 37°56' E 023°38'0 0.0
2018-May-12 23:26N 37°56' E 023°38'0 0.0
2018-May-12 22:59N 37°56' E 023°38'0 0.0
2018-May-12 22:29N 37°56' E 023°38'0 0.0
2018-May-12 21:59N 37°56' E 023°38'0 0.0
2018-May-12 21:29N 37°56' E 023°38'0 0.0
2018-May-12 20:59N 37°56' E 023°38'0 0.0
2018-May-12 20:29N 37°56' E 023°38'0 0.0
2018-May-12 19:59N 37°56' E 023°38'0 0.0
2018-May-12 19:29N 37°56' E 023°38'0 0.0
2018-May-12 18:58N 37°56' E 023°38'0 0.0
2018-May-12 18:28N 37°56' E 023°38'0 0.0
2018-May-12 17:58N 37°56' E 023°38'0 0.0
2018-May-12 17:25N 37°56' E 023°38'0 0.0
2018-May-12 16:58N 37°56' E 023°38'  
Track history (hours):
 
Tides and Currents Weather Stations Pressure Air Temp Water Temp Dewpoint Dewpoint Depression Visibility Wind Speed Wind Dir Waves Ship Positions

Blue Star 1

Last reported at 2018-May-22 16:53 UTC. Time now 2018-May-23 10:29 UTC.
Position N 37°32' E 023°49'.

Length 176 m; draft 6.5 m.

Type: Passenger vessel. MMSI: 239710000.

Date/timePositionNaut miles runAvg speedWind from/ knotsBaromVisibWave heightAir tempDewpointWater temp
2018-May-22 16:53N 37°32' E 023°49'821.2
2018-May-22 16:30N 37°38' E 023°43'1121.3
2018-May-22 16:01N 37°48' E 023°37'917.4
2018-May-22 15:31N 37°56' E 023°37'0 0.1
2018-May-22 15:01N 37°56' E 023°37'0 0.0
2018-May-22 14:30N 37°56' E 023°37'0 0.0
2018-May-22 13:59N 37°56' E 023°37'0 0.0
2018-May-22 13:30N 37°56' E 023°37'0 0.0
2018-May-22 12:38N 37°56' E 023°37'0 0.0
2018-May-22 12:25N 37°56' E 023°37'0 0.0
2018-May-22 12:01N 37°56' E 023°37'0 0.0
2018-May-22 11:30N 37°56' E 023°37'0 0.0
2018-May-22 11:00N 37°56' E 023°37'0 0.0
2018-May-22 10:30N 37°56' E 023°37'0 0.0
2018-May-22 09:58N 37°56' E 023°37'0 0.0
2018-May-22 09:30N 37°56' E 023°37'0 0.0
2018-May-22 09:00N 37°56' E 023°37'0 0.0
2018-May-22 08:30N 37°56' E 023°37'0 0.0
2018-May-22 08:00N 37°56' E 023°37'0 0.0
2018-May-22 07:30N 37°56' E 023°37'0 0.0
2018-May-22 06:59N 37°56' E 023°37'0 0.0
2018-May-22 06:29N 37°56' E 023°37'0 0.0
2018-May-22 05:59N 37°56' E 023°37'0 0.0
2018-May-22 05:29N 37°56' E 023°37'0 0.0
2018-May-22 05:00N 37°56' E 023°37'4 8.5
2018-May-22 04:30N 37°52' E 023°39'1325.1
2018-May-22 04:00N 37°41' E 023°46'11 0.3
2018-May-20 16:29N 37°31' E 023°51'1021.2
2018-May-20 16:00N 37°39' E 023°44'1021.1
2018-May-20 15:30N 37°49' E 023°38'815.7
2018-May-20 15:00N 37°56' E 023°37'0 0.0
2018-May-20 14:30N 37°56' E 023°37'0 0.0
2018-May-20 13:59N 37°56' E 023°37'0 0.0
2018-May-20 13:26N 37°56' E 023°37'0 0.0
2018-May-20 12:59N 37°56' E 023°37'0 0.0
2018-May-20 12:29N 37°56' E 023°37'0 0.0
2018-May-20 11:58N 37°56' E 023°37'0 0.0
2018-May-20 11:28N 37°56' E 023°37'0 0.0
2018-May-20 10:58N 37°56' E 023°37'0 0.0
2018-May-20 10:28N 37°56' E 023°37'0 0.0
2018-May-20 09:58N 37°56' E 023°37'0 0.0
2018-May-20 09:28N 37°56' E 023°37'0 0.0
2018-May-20 08:55N 37°56' E 023°37'0 0.0
2018-May-20 08:28N 37°56' E 023°37'0 0.0
2018-May-20 07:58N 37°56' E 023°37'0 0.0
2018-May-20 07:28N 37°56' E 023°37'0 0.0
2018-May-20 06:58N 37°56' E 023°37'0 0.0
2018-May-20 06:28N 37°56' E 023°37'0 0.0
2018-May-20 05:58N 37°56' E 023°37'0 0.0
2018-May-20 05:30N 37°56' E 023°37'0 0.0
2018-May-20 05:00N 37°56' E 023°37'0 0.0
2018-May-20 04:30N 37°56' E 023°37'0 0.0
2018-May-20 04:00N 37°56' E 023°37'0 0.0
2018-May-20 03:30N 37°56' E 023°37'0 0.1
2018-May-20 03:00N 37°56' E 023°38'714.8
2018-May-20 02:30N 37°49' E 023°41'1121.1
2018-May-20 02:00N 37°40' E 023°48'4821.1
2018-May-19 23:44N 37°23' E 024°44'521.3
2018-May-19 23:30N 37°21' E 024°49'1121.2
2018-May-19 23:00N 37°18' E 025°02'1121.5
2018-May-19 22:30N 37°16' E 025°16'1121.2
2018-May-19 22:00N 37°14' E 025°29'1020.9
2018-May-19 21:30N 37°12' E 025°41'11 0.5
2018-May-18 22:28N 37°18' E 025°53'1523.9
2018-May-18 21:50N 37°19' E 025°34'823.8
2018-May-18 21:31N 37°20' E 025°25'1223.4
2018-May-18 21:01N 37°22' E 025°10'1122.2
2018-May-18 20:30N 37°26' E 024°57'0 0.7
2018-May-18 20:00N 37°26' E 024°58'918.6
2018-May-18 19:31N 37°32' E 024°48'4624.5
2018-May-18 17:39N 37°37' E 023°51'425.3
2018-May-18 17:30N 37°38' E 023°47'1223.8
2018-May-18 17:01N 37°48' E 023°38'917.0
2018-May-18 16:30N 37°56' E 023°38'0 0.0
2018-May-18 16:00N 37°56' E 023°38'0 0.0
2018-May-18 15:30N 37°56' E 023°38'0 0.0
2018-May-18 15:00N 37°56' E 023°38'0 0.0
2018-May-18 14:30N 37°56' E 023°38'0 0.0
2018-May-18 14:00N 37°56' E 023°38'0 0.0
2018-May-18 13:30N 37°56' E 023°38'0 0.0
2018-May-18 13:00N 37°56' E 023°38'0 0.0
2018-May-18 12:30N 37°56' E 023°38'0 0.0
2018-May-18 12:00N 37°56' E 023°38'0 0.0
2018-May-18 11:29N 37°56' E 023°38'0 0.0
2018-May-18 10:59N 37°56' E 023°38'0 0.0
2018-May-18 10:29N 37°56' E 023°38'0 0.0
2018-May-18 09:59N 37°56' E 023°38'0 0.0
2018-May-18 09:29N 37°56' E 023°38'0 0.0
2018-May-18 08:59N 37°56' E 023°38'2 5.2
2018-May-18 08:31N 37°54' E 023°38'1224.3
2018-May-18 08:00N 37°43' E 023°44'1223.7
2018-May-18 07:30N 37°37' E 023°57'1424.8
2018-May-18 06:56N 37°31' E 024°14'2523.8
2018-May-18 05:53N 37°24' E 024°44'924.6
2018-May-18 05:31N 37°20' E 024°54'1224.7
2018-May-18 05:00N 37°18' E 025°10'1224.9
2018-May-18 04:31N 37°15' E 025°25'1325.2
2018-May-18 04:00N 37°14' E 025°41'7 0.4
2018-May-17 12:08N 37°10' E 025°48'324.4
2018-May-17 12:01N 37°11' E 025°45'1224.6
2018-May-17 11:31N 37°14' E 025°30'1224.7
2018-May-17 11:00N 37°15' E 025°14'1224.4
2018-May-17 10:30N 37°19' E 024°59'1224.5
2018-May-17 10:01N 37°22' E 024°45'4524.1
2018-May-17 08:09N 37°36' E 023°51'424.9
2018-May-17 08:00N 37°38' E 023°47'1223.7
2018-May-17 07:31N 37°47' E 023°38'918.2
2018-May-17 07:00N 37°56' E 023°37'0 0.0
2018-May-17 06:30N 37°56' E 023°37'0 0.0
2018-May-17 06:00N 37°56' E 023°37'0 0.0
2018-May-17 05:30N 37°56' E 023°37'0 0.0
2018-May-17 05:00N 37°56' E 023°37'0 0.0
2018-May-17 04:30N 37°56' E 023°37'0 0.0
2018-May-17 04:00N 37°56' E 023°37'0 0.0
2018-May-17 03:30N 37°56' E 023°37'0 0.0
2018-May-17 03:00N 37°56' E 023°37'2 3.2
2018-May-17 02:30N 37°55' E 023°37'1122.4
2018-May-17 02:01N 37°45' E 023°44'1223.1
2018-May-17 01:30N 37°38' E 023°56'1722.9
2018-May-17 00:47N 37°44' E 024°16'10 0.3
2018-May-15 19:08N 37°37' E 024°06'318.8
2018-May-15 18:58N 37°37' E 024°02'818.7
2018-May-15 18:31N 37°37' E 023°52'917.5
2018-May-15 18:00N 37°41' E 023°42'918.4
2018-May-15 17:31N 37°49' E 023°37'714.0
2018-May-15 17:00N 37°56' E 023°38'0 0.0
2018-May-15 16:30N 37°56' E 023°38'0 0.0
2018-May-15 16:00N 37°56' E 023°38'0 0.0
2018-May-15 15:30N 37°56' E 023°38'0 0.0
2018-May-15 15:00N 37°56' E 023°38'0 0.0
2018-May-15 14:30N 37°56' E 023°38'0 0.0
2018-May-15 14:00N 37°56' E 023°38'0 0.0
2018-May-15 13:30N 37°56' E 023°38'0 0.0
2018-May-15 13:00N 37°56' E 023°38'0 0.0
2018-May-15 12:26N 37°56' E 023°38'0 0.0
2018-May-15 11:59N 37°56' E 023°38'0 0.0
2018-May-15 11:29N 37°56' E 023°38'0 0.0
2018-May-15 10:56N 37°56' E 023°38'0 0.0
2018-May-15 10:26N 37°56' E 023°38'0 0.0
2018-May-15 09:53N 37°56' E 023°38'0 0.0
2018-May-15 09:29N 37°56' E 023°38'0 0.0
2018-May-15 08:59N 37°56' E 023°38'0 0.0
2018-May-15 08:29N 37°56' E 023°38'0 0.0
2018-May-15 07:59N 37°56' E 023°38'0 0.0
2018-May-15 07:29N 37°56' E 023°38'0 0.0
2018-May-15 06:53N 37°56' E 023°38'0 0.0
2018-May-15 06:29N 37°56' E 023°38'0 0.0
2018-May-15 05:59N 37°56' E 023°38'0 0.0
2018-May-15 05:28N 37°56' E 023°38'0 0.0
2018-May-15 04:58N 37°56' E 023°38'0 0.0
2018-May-15 04:28N 37°56' E 023°38'0 0.0
2018-May-15 03:55N 37°56' E 023°38'0 0.0
2018-May-15 03:30N 37°56' E 023°38'510.5
2018-May-15 03:00N 37°51' E 023°39'1121.7
2018-May-15 02:30N 37°42' E 023°46'6 0.2
2018-May-13 18:28N 37°37' E 023°51'817.0
2018-May-13 18:00N 37°41' E 023°42'918.1
2018-May-13 17:30N 37°49' E 023°37'714.5
2018-May-13 17:00N 37°56' E 023°38'0 0.0
2018-May-13 16:25N 37°56' E 023°38'0 0.0
2018-May-13 15:58N 37°56' E 023°38'0 0.0
2018-May-13 15:28N 37°56' E 023°38'0 0.0
2018-May-13 14:58N 37°56' E 023°38'0 0.0
2018-May-13 14:28N 37°56' E 023°38'0 0.0
2018-May-13 13:58N 37°56' E 023°38'0 0.0
2018-May-13 13:25N 37°56' E 023°38'0 0.0
2018-May-13 12:58N 37°56' E 023°38'0 0.0
2018-May-13 12:28N 37°56' E 023°38'0 0.0
2018-May-13 11:58N 37°56' E 023°38'0 0.0
2018-May-13 11:28N 37°56' E 023°38'0 0.0
2018-May-13 10:58N 37°56' E 023°38'0 0.0
2018-May-13 10:28N 37°56' E 023°38'0 0.0
2018-May-13 09:58N 37°56' E 023°38'0 0.0
2018-May-13 09:30N 37°56' E 023°38'0 0.0
2018-May-13 09:00N 37°56' E 023°38'0 0.0
2018-May-13 08:30N 37°56' E 023°38'0 0.0
2018-May-13 08:00N 37°56' E 023°38'0 0.0
2018-May-13 07:30N 37°56' E 023°38'0 0.0
2018-May-13 07:00N 37°56' E 023°38'0 0.0
2018-May-13 06:30N 37°56' E 023°38'0 0.0
2018-May-13 06:00N 37°56' E 023°38'0 0.0
2018-May-13 05:30N 37°56' E 023°38'0 0.0
2018-May-13 05:00N 37°56' E 023°38'0 0.0
2018-May-13 04:30N 37°56' E 023°38'0 0.0
2018-May-13 04:00N 37°56' E 023°38'0 0.0
2018-May-13 03:30N 37°56' E 023°38'0 0.0
2018-May-13 02:57N 37°56' E 023°38'0 0.0
2018-May-13 02:29N 37°56' E 023°38'0 0.0
2018-May-13 01:59N 37°56' E 023°38'0 0.0
2018-May-13 01:29N 37°56' E 023°38'0 0.0
2018-May-13 00:56N 37°56' E 023°38'0 0.0
2018-May-13 00:29N 37°56' E 023°38'0 0.0
2018-May-12 23:59N 37°56' E 023°38'0 0.0
2018-May-12 23:26N 37°56' E 023°38'0 0.0
2018-May-12 22:59N 37°56' E 023°38'0 0.0
2018-May-12 22:29N 37°56' E 023°38'0 0.0
2018-May-12 21:59N 37°56' E 023°38'0 0.0
2018-May-12 21:29N 37°56' E 023°38'0 0.0
2018-May-12 20:59N 37°56' E 023°38'0 0.0
2018-May-12 20:29N 37°56' E 023°38'0 0.0
2018-May-12 19:59N 37°56' E 023°38'0 0.0
2018-May-12 19:29N 37°56' E 023°38'0 0.0
2018-May-12 18:58N 37°56' E 023°38'0 0.0
2018-May-12 18:28N 37°56' E 023°38'0 0.0
2018-May-12 17:58N 37°56' E 023°38'0 0.0
2018-May-12 17:25N 37°56' E 023°38'0 0.0
2018-May-12 16:58N 37°56' E 023°38'  

Dump ship's entire track history